createdAt,value
2017-12-03T00:01:14.183Z,93.80
2017-12-03T00:03:41.674Z,93.80
2017-12-03T00:06:09.172Z,93.90
2017-12-03T00:08:36.660Z,93.90
2017-12-03T00:11:04.924Z,93.90
2017-12-03T00:13:32.405Z,93.90
2017-12-03T00:15:59.914Z,94.00
2017-12-03T00:18:27.402Z,93.90
2017-12-03T00:20:54.897Z,94.00
2017-12-03T00:23:22.378Z,94.10
2017-12-03T00:25:49.879Z,95.20
2017-12-03T00:28:17.361Z,96.60
2017-12-03T00:30:44.851Z,97.20
2017-12-03T00:33:12.331Z,96.30
2017-12-03T00:35:39.827Z,95.40
2017-12-03T00:38:08.074Z,94.70
2017-12-03T00:40:35.660Z,94.70
2017-12-03T00:43:03.906Z,94.30
2017-12-03T00:45:31.489Z,94.30
2017-12-03T00:47:59.744Z,94.40
2017-12-03T00:50:27.330Z,94.40
2017-12-03T00:52:55.592Z,94.40
2017-12-03T00:55:23.080Z,94.40
2017-12-03T00:57:50.562Z,94.50
2017-12-03T01:00:18.051Z,94.50
2017-12-03T01:02:45.660Z,94.50
2017-12-03T01:05:13.144Z,94.60
2017-12-03T01:07:41.843Z,94.60
2017-12-03T01:10:09.331Z,94.70
2017-12-03T01:12:36.815Z,94.70
2017-12-03T01:15:04.297Z,94.70
2017-12-03T01:17:31.792Z,94.70
2017-12-03T01:19:59.274Z,94.70
2017-12-03T01:22:27.592Z,94.70
2017-12-03T01:24:55.062Z,94.70
2017-12-03T01:27:22.575Z,94.70
2017-12-03T01:29:50.068Z,94.70
2017-12-03T01:32:17.616Z,94.50
2017-12-03T01:34:45.108Z,94.50
2017-12-03T01:37:12.625Z,94.20
2017-12-03T01:39:40.116Z,94.10
2017-12-03T01:42:07.612Z,93.90
2017-12-03T01:44:35.865Z,93.80
2017-12-03T01:47:03.356Z,93.80
2017-12-03T01:49:31.602Z,93.60
2017-12-03T01:51:59.095Z,93.90
2017-12-03T01:54:26.585Z,93.50
2017-12-03T01:56:54.070Z,93.50
2017-12-03T01:59:21.563Z,93.50
2017-12-03T02:01:49.067Z,93.50
2017-12-03T02:04:16.544Z,93.50
2017-12-03T02:06:44.034Z,93.50
2017-12-03T02:09:12.290Z,93.40
2017-12-03T02:11:39.776Z,93.40
2017-12-03T02:14:08.044Z,93.20
2017-12-03T02:16:36.311Z,93.00
2017-12-03T02:19:04.558Z,93.00
2017-12-03T02:21:32.188Z,93.00
2017-12-03T02:23:59.705Z,93.00
2017-12-03T02:26:27.277Z,92.90
2017-12-03T02:28:55.546Z,93.10
2017-12-03T02:31:23.801Z,93.20
2017-12-03T02:33:51.392Z,93.10
2017-12-03T02:36:19.660Z,93.10
2017-12-03T02:38:47.906Z,93.30
2017-12-03T02:41:15.409Z,93.20
2017-12-03T02:43:42.911Z,93.30
2017-12-03T02:46:10.386Z,93.40
2017-12-03T02:48:37.872Z,93.50
2017-12-03T02:51:06.151Z,93.50
2017-12-03T02:53:34.425Z,93.60
2017-12-03T02:56:02.692Z,93.70
2017-12-03T02:58:30.955Z,93.90
2017-12-03T03:00:58.568Z,93.70
2017-12-03T03:03:26.046Z,93.80
2017-12-03T03:05:53.583Z,93.90
2017-12-03T03:08:21.113Z,94.00
2017-12-03T03:10:49.352Z,94.00
2017-12-03T03:13:16.858Z,94.00
2017-12-03T03:15:44.369Z,94.00
2017-12-03T03:18:11.855Z,94.00
2017-12-03T03:20:40.128Z,94.00
2017-12-03T03:23:08.419Z,94.30
2017-12-03T03:25:36.706Z,94.10
2017-12-03T03:28:05.142Z,94.10
2017-12-03T03:30:33.205Z,94.10
2017-12-03T03:33:00.695Z,94.10
2017-12-03T03:35:28.980Z,94.20
2017-12-03T03:37:57.238Z,94.10
2017-12-03T03:40:24.727Z,94.10
2017-12-03T03:42:52.996Z,94.20
2017-12-03T03:45:21.240Z,94.10
2017-12-03T03:47:48.724Z,94.10
2017-12-03T03:50:16.993Z,94.10
2017-12-03T03:52:45.275Z,94.10
2017-12-03T03:55:13.522Z,94.10
2017-12-03T03:57:41.115Z,94.10
2017-12-03T04:00:09.353Z,93.90
2017-12-03T04:02:36.939Z,93.90
2017-12-03T04:05:05.207Z,94.10
2017-12-03T04:07:33.458Z,93.80
2017-12-03T04:10:04.376Z,93.80
2017-12-03T04:12:31.874Z,93.70
2017-12-03T04:14:59.356Z,93.60
2017-12-03T04:17:27.656Z,93.60
2017-12-03T04:19:55.168Z,93.50
2017-12-03T04:22:22.655Z,93.50
2017-12-03T04:24:50.175Z,93.40
2017-12-03T04:27:17.659Z,93.30
2017-12-03T04:29:45.914Z,93.20
2017-12-03T04:32:13.406Z,93.20
2017-12-03T04:34:40.893Z,93.10
2017-12-03T04:37:08.375Z,93.10
2017-12-03T04:39:35.874Z,93.10
2017-12-03T04:42:04.139Z,92.90
2017-12-03T04:44:32.391Z,92.80
2017-12-03T04:46:59.907Z,92.80
2017-12-03T04:49:27.388Z,92.80
2017-12-03T04:51:54.876Z,92.70
2017-12-03T04:54:22.374Z,92.70
2017-12-03T04:56:49.995Z,92.60
2017-12-03T04:59:17.473Z,92.60
2017-12-03T05:01:45.739Z,92.40
2017-12-03T05:04:13.982Z,92.30
2017-12-03T05:06:41.459Z,92.30
2017-12-03T05:09:09.605Z,92.40
2017-12-03T05:11:37.873Z,92.40
2017-12-03T05:14:05.401Z,92.40
2017-12-03T05:16:32.957Z,92.40
2017-12-03T05:19:01.227Z,92.30
2017-12-03T05:21:28.793Z,92.30
2017-12-03T05:23:56.897Z,92.30
2017-12-03T05:26:24.384Z,92.40
2017-12-03T05:28:51.898Z,92.40
2017-12-03T05:31:19.436Z,92.40
2017-12-03T05:33:46.935Z,92.50
2017-12-03T05:36:14.424Z,92.50
2017-12-03T05:38:41.931Z,92.50
2017-12-03T05:41:09.428Z,92.40
2017-12-03T05:43:36.919Z,92.40
2017-12-03T05:46:05.188Z,92.50
2017-12-03T05:48:33.433Z,92.40
2017-12-03T05:51:00.912Z,92.40
2017-12-03T05:53:28.409Z,92.50
2017-12-03T05:55:55.891Z,92.40
2017-12-03T05:58:23.371Z,92.50
2017-12-03T06:00:51.020Z,92.30
2017-12-03T06:03:19.268Z,92.10
2017-12-03T06:05:46.798Z,92.10
2017-12-03T06:08:15.120Z,92.00
2017-12-03T06:10:42.612Z,92.00
2017-12-03T06:13:10.091Z,92.00
2017-12-03T06:15:38.387Z,92.20
2017-12-03T06:18:05.867Z,92.00
2017-12-03T06:20:33.356Z,92.00
2017-12-03T06:23:00.863Z,91.90
2017-12-03T06:25:28.384Z,91.80
2017-12-03T06:27:55.871Z,91.90
2017-12-03T06:30:23.387Z,91.80
2017-12-03T06:32:50.982Z,91.80
2017-12-03T06:35:18.478Z,91.60
2017-12-03T06:37:45.978Z,91.50
2017-12-03T06:40:13.466Z,91.50
2017-12-03T06:42:40.948Z,91.50
2017-12-03T06:45:08.495Z,91.50
2017-12-03T06:47:35.973Z,91.40
2017-12-03T06:50:03.448Z,91.20
2017-12-03T06:52:30.945Z,91.30
2017-12-03T06:54:58.434Z,91.20
2017-12-03T06:57:25.963Z,94.80
2017-12-03T06:59:54.231Z,91.80
2017-12-03T07:02:21.790Z,91.70
2017-12-03T07:04:50.062Z,90.90
2017-12-03T07:07:18.327Z,90.80
2017-12-03T07:09:45.816Z,90.80
2017-12-03T07:12:14.097Z,90.80
2017-12-03T07:14:41.598Z,90.70
2017-12-03T07:17:09.112Z,90.60
2017-12-03T07:19:36.590Z,90.70
2017-12-03T07:22:04.095Z,90.60
2017-12-03T07:24:31.571Z,90.50
2017-12-03T07:26:59.057Z,90.50
2017-12-03T07:29:26.590Z,90.50
2017-12-03T07:31:54.896Z,90.40
2017-12-03T07:34:22.393Z,90.40
2017-12-03T07:36:49.903Z,90.20
2017-12-03T07:39:17.407Z,90.20
2017-12-03T07:41:44.888Z,90.20
2017-12-03T07:44:13.220Z,90.30
2017-12-03T07:46:40.830Z,90.20
2017-12-03T07:49:09.084Z,90.20
2017-12-03T07:51:36.613Z,90.20
2017-12-03T07:54:04.102Z,90.10
2017-12-03T07:56:31.591Z,90.00
2017-12-03T07:58:59.856Z,89.30
2017-12-03T08:01:28.112Z,89.10
2017-12-03T08:03:55.596Z,89.10
2017-12-03T08:06:23.114Z,88.80
2017-12-03T08:08:50.608Z,88.60
2017-12-03T08:11:18.871Z,87.50
2017-12-03T08:13:46.368Z,87.40
2017-12-03T08:16:14.613Z,86.90
2017-12-03T08:18:42.870Z,85.10
2017-12-03T08:21:10.371Z,85.10
2017-12-03T08:23:37.870Z,84.80
2017-12-03T08:26:05.399Z,85.50
2017-12-03T08:28:32.907Z,83.50
2017-12-03T08:31:00.398Z,83.40
2017-12-03T08:33:28.648Z,82.80
2017-12-03T08:35:56.924Z,81.20
2017-12-03T08:38:24.404Z,81.20
2017-12-03T08:40:51.899Z,81.20
2017-12-03T08:43:19.396Z,79.70
2017-12-03T08:45:46.882Z,80.20
2017-12-03T08:48:14.363Z,79.70
2017-12-03T08:50:41.875Z,79.80
2017-12-03T08:53:10.135Z,78.20
2017-12-03T08:55:37.631Z,78.30
2017-12-03T08:58:05.135Z,78.80
2017-12-03T09:00:32.623Z,75.90
2017-12-03T09:03:00.883Z,76.50
2017-12-03T09:05:28.374Z,76.40
2017-12-03T09:07:55.958Z,74.90
2017-12-03T09:10:23.443Z,73.20
2017-12-03T09:12:50.950Z,73.00
2017-12-03T09:15:19.214Z,71.80
2017-12-03T09:17:47.463Z,70.00
2017-12-03T09:20:14.984Z,70.00
2017-12-03T09:22:42.480Z,75.00
2017-12-03T09:25:09.970Z,66.80
2017-12-03T09:27:38.238Z,63.30
2017-12-03T09:30:06.481Z,61.80
2017-12-03T09:32:33.981Z,61.80
2017-12-03T09:35:02.263Z,59.70
2017-12-03T09:37:30.514Z,58.50
2017-12-03T09:39:57.995Z,58.50
2017-12-03T09:42:26.300Z,57.90
2017-12-03T09:44:53.795Z,57.90
2017-12-03T09:47:22.144Z,55.40
2017-12-03T09:49:49.645Z,55.40
2017-12-03T09:52:17.139Z,55.60
2017-12-03T09:54:44.620Z,56.70
2017-12-03T09:57:12.167Z,55.50
2017-12-03T09:59:39.654Z,55.00
2017-12-03T10:02:07.182Z,54.60
2017-12-03T10:04:34.689Z,54.50
2017-12-03T10:07:02.174Z,54.40
2017-12-03T10:09:30.508Z,56.00
2017-12-03T10:11:58.007Z,56.00
2017-12-03T10:14:26.289Z,56.20
2017-12-03T10:16:54.285Z,56.20
2017-12-03T10:19:22.063Z,54.60
2017-12-03T10:21:49.566Z,55.40
2017-12-03T10:24:17.820Z,54.00
2017-12-03T10:26:45.420Z,54.00
2017-12-03T10:29:12.908Z,54.30
2017-12-03T10:31:40.397Z,54.00
2017-12-03T10:34:07.907Z,53.60
2017-12-03T10:36:35.390Z,54.40
2017-12-03T10:39:02.881Z,53.40
2017-12-03T10:41:30.385Z,53.40
2017-12-03T10:43:57.876Z,53.70
2017-12-03T10:46:25.356Z,52.10
2017-12-03T10:48:52.876Z,52.30
2017-12-03T10:51:20.373Z,53.00
2017-12-03T10:53:47.860Z,52.70
2017-12-03T10:56:15.373Z,52.00
2017-12-03T10:58:42.870Z,51.50
2017-12-03T11:01:11.108Z,50.90
2017-12-03T11:03:38.695Z,50.90
2017-12-03T11:06:06.208Z,52.30
2017-12-03T11:08:33.702Z,53.40
2017-12-03T11:11:01.203Z,52.90
2017-12-03T11:13:28.715Z,50.70
2017-12-03T11:15:56.239Z,50.40
2017-12-03T11:18:24.564Z,50.20
2017-12-03T11:20:52.826Z,48.40
2017-12-03T11:23:20.311Z,48.30
2017-12-03T11:25:48.587Z,48.60
2017-12-03T11:28:16.835Z,48.90
2017-12-03T11:30:44.319Z,48.90
2017-12-03T11:33:12.106Z,50.00
2017-12-03T11:35:39.683Z,49.20
2017-12-03T11:38:07.153Z,48.30
2017-12-03T11:40:34.708Z,47.80
2017-12-03T11:43:02.388Z,46.80
2017-12-03T11:45:29.903Z,46.70
2017-12-03T11:47:57.411Z,46.80
2017-12-03T11:50:24.935Z,47.60
2017-12-03T11:52:52.630Z,47.60
2017-12-03T11:55:20.165Z,49.30
2017-12-03T11:57:47.675Z,49.20
2017-12-03T12:00:15.921Z,51.20
2017-12-03T12:02:43.442Z,51.20
2017-12-03T12:05:10.967Z,52.20
2017-12-03T12:07:39.341Z,54.30
2017-12-03T12:10:07.633Z,54.60
2017-12-03T12:12:35.152Z,54.60
2017-12-03T12:15:02.824Z,54.90
2017-12-03T12:17:37.219Z,55.30
2017-12-03T12:20:04.703Z,55.20
2017-12-03T12:22:32.223Z,55.20
2017-12-03T12:24:59.757Z,56.10
2017-12-03T12:27:27.271Z,56.70
2017-12-03T12:29:54.795Z,57.80
2017-12-03T12:32:22.329Z,58.20
2017-12-03T12:34:49.836Z,58.80
2017-12-03T12:37:17.460Z,59.60
2017-12-03T12:39:50.697Z,59.40
2017-12-03T12:42:18.968Z,59.60
2017-12-03T12:44:46.488Z,59.60
2017-12-03T12:47:13.973Z,58.40
2017-12-03T12:49:41.575Z,60.60
2017-12-03T12:52:09.850Z,61.30
2017-12-03T12:54:38.108Z,60.30
2017-12-03T12:57:05.598Z,60.20
2017-12-03T12:59:33.107Z,59.40
2017-12-03T13:02:00.651Z,61.30
2017-12-03T13:04:28.144Z,63.20
2017-12-03T13:06:55.650Z,64.20
2017-12-03T13:09:23.169Z,63.80
2017-12-03T13:11:50.711Z,68.60
2017-12-03T13:14:18.252Z,63.00
2017-12-03T13:16:45.749Z,62.70
2017-12-03T13:19:14.037Z,63.00
2017-12-03T13:21:41.629Z,63.50
2017-12-03T13:24:09.140Z,66.10
2017-12-03T13:26:37.451Z,63.60
2017-12-03T13:29:04.979Z,63.50
2017-12-03T13:31:33.330Z,63.90
2017-12-03T13:34:00.830Z,63.80
2017-12-03T13:36:28.356Z,64.10
2017-12-03T13:38:55.844Z,64.00
2017-12-03T13:41:24.107Z,64.00
2017-12-03T13:43:52.437Z,64.30
2017-12-03T13:46:19.906Z,64.10
2017-12-03T13:48:47.387Z,64.50
2017-12-03T13:51:14.905Z,65.20
2017-12-03T13:53:42.395Z,65.60
2017-12-03T13:56:09.896Z,65.50
2017-12-03T13:58:37.424Z,66.00
2017-12-03T14:01:04.925Z,66.30
2017-12-03T14:03:32.424Z,66.30
2017-12-03T14:05:59.980Z,66.10
2017-12-03T14:08:27.487Z,66.20
2017-12-03T14:10:55.047Z,66.20
2017-12-03T14:13:22.558Z,67.10
2017-12-03T14:15:50.093Z,66.80
2017-12-03T14:18:17.590Z,66.80
2017-12-03T14:20:45.095Z,66.70
2017-12-03T14:23:12.591Z,67.60
2017-12-03T14:25:40.099Z,67.00
2017-12-03T14:28:07.601Z,66.90
2017-12-03T14:30:35.080Z,67.20
2017-12-03T14:33:03.332Z,67.90
2017-12-03T14:35:30.854Z,67.80
2017-12-03T14:37:58.346Z,68.10
2017-12-03T14:40:25.894Z,68.20
2017-12-03T14:42:53.570Z,68.60
2017-12-03T14:45:21.062Z,68.90
2017-12-03T14:47:49.315Z,68.60
2017-12-03T14:50:16.828Z,68.50
2017-12-03T14:52:44.323Z,68.60
2017-12-03T14:55:15.245Z,69.00
2017-12-03T14:57:42.771Z,69.20
2017-12-03T15:00:10.304Z,69.40
2017-12-03T15:02:37.815Z,69.60
2017-12-03T15:05:05.360Z,69.80
2017-12-03T15:07:32.850Z,70.00
2017-12-03T15:10:00.933Z,70.10
2017-12-03T15:12:28.442Z,70.30
2017-12-03T15:14:55.950Z,70.70
2017-12-03T15:17:23.451Z,70.30
2017-12-03T15:19:51.274Z,70.50
2017-12-03T15:22:19.523Z,71.10
2017-12-03T15:24:47.017Z,71.00
2017-12-03T15:27:14.547Z,71.40
2017-12-03T15:29:42.103Z,71.30
2017-12-03T15:32:09.599Z,71.30
2017-12-03T15:34:37.104Z,71.70
2017-12-03T15:37:04.597Z,71.90
2017-12-03T15:39:32.083Z,71.90
2017-12-03T15:42:00.398Z,71.70
2017-12-03T15:44:27.899Z,71.70
2017-12-03T15:46:55.383Z,71.90
2017-12-03T15:49:23.688Z,72.20
2017-12-03T15:51:51.402Z,72.20
2017-12-03T15:54:19.792Z,72.50
2017-12-03T15:56:47.289Z,72.50
2017-12-03T15:59:14.778Z,72.60
2017-12-03T16:01:42.263Z,72.20
2017-12-03T16:04:09.767Z,72.50
2017-12-03T16:06:37.399Z,72.60
2017-12-03T16:09:04.895Z,72.50
2017-12-03T16:11:32.407Z,72.70
2017-12-03T16:14:00.656Z,72.80
2017-12-03T16:16:28.341Z,72.70
2017-12-03T16:18:55.879Z,72.70
2017-12-03T16:21:23.533Z,73.10
2017-12-03T16:23:51.026Z,72.80
2017-12-03T16:26:19.315Z,73.40
2017-12-03T16:28:48.787Z,73.10
2017-12-03T16:31:17.237Z,73.00
2017-12-03T16:33:44.762Z,72.70
2017-12-03T16:36:12.351Z,72.70
2017-12-03T16:38:40.074Z,72.80
2017-12-03T16:41:07.631Z,72.90
2017-12-03T16:43:35.895Z,73.20
2017-12-03T16:46:03.377Z,73.10
2017-12-03T16:48:30.903Z,73.10
2017-12-03T16:50:58.401Z,73.30
2017-12-03T16:53:25.905Z,73.00
2017-12-03T16:55:54.428Z,73.90
2017-12-03T16:58:22.686Z,74.00
2017-12-03T17:00:50.210Z,74.00
2017-12-03T17:03:17.785Z,74.20
2017-12-03T17:05:46.089Z,74.20
2017-12-03T17:08:14.375Z,74.80
2017-12-03T17:10:42.894Z,74.80
2017-12-03T17:13:10.464Z,74.70
2017-12-03T17:15:38.720Z,75.20
2017-12-03T17:18:06.224Z,75.10
2017-12-03T17:20:33.713Z,75.30
2017-12-03T17:23:01.251Z,75.50
2017-12-03T17:25:29.898Z,76.00
2017-12-03T17:27:57.477Z,75.90
2017-12-03T17:30:24.983Z,76.30
2017-12-03T17:32:52.494Z,76.50
2017-12-03T17:35:20.743Z,77.20
2017-12-03T17:37:48.236Z,77.10
2017-12-03T17:40:15.786Z,77.50
2017-12-03T17:42:43.269Z,77.80
2017-12-03T17:45:11.544Z,78.10
2017-12-03T17:47:39.995Z,78.20
2017-12-03T17:50:07.558Z,78.10
2017-12-03T17:52:35.387Z,81.10
2017-12-03T17:55:02.975Z,78.90
2017-12-03T17:57:30.468Z,78.80
2017-12-03T17:59:58.740Z,79.00
2017-12-03T18:02:26.241Z,79.00
2017-12-03T18:04:53.733Z,79.10
2017-12-03T18:07:21.339Z,79.30
2017-12-03T18:09:48.948Z,79.70
2017-12-03T18:12:16.539Z,79.90
2017-12-03T18:14:44.988Z,80.60
2017-12-03T18:17:12.520Z,80.50
2017-12-03T18:19:40.019Z,81.20
2017-12-03T18:22:07.592Z,81.30
2017-12-03T18:24:35.157Z,81.50
2017-12-03T18:27:03.514Z,81.40
2017-12-03T18:29:30.999Z,81.30
2017-12-03T18:31:59.273Z,81.60
2017-12-03T18:34:27.584Z,82.10
2017-12-03T18:36:55.312Z,82.00
2017-12-03T18:39:22.846Z,83.00
2017-12-03T18:41:50.347Z,83.50
2017-12-03T18:44:19.452Z,86.10
2017-12-03T18:46:47.262Z,86.20
2017-12-03T18:49:14.743Z,86.80
2017-12-03T18:51:42.219Z,88.70
2017-12-03T18:54:10.491Z,89.30
2017-12-03T18:56:38.751Z,89.80
2017-12-03T18:59:06.230Z,89.70
2017-12-03T19:01:34.506Z,90.90
2017-12-03T19:04:03.554Z,91.90
2017-12-03T19:06:31.053Z,91.90
2017-12-03T19:08:59.708Z,91.90
2017-12-03T19:11:27.198Z,91.80
2017-12-03T19:13:55.478Z,91.70
2017-12-03T19:16:23.080Z,91.70
2017-12-03T19:18:50.560Z,91.50
2017-12-03T19:21:18.248Z,91.50
2017-12-03T19:23:46.617Z,91.70
2017-12-03T19:26:14.164Z,91.70
2017-12-03T19:28:42.637Z,91.80
2017-12-03T19:31:10.140Z,91.60
2017-12-03T19:33:37.626Z,91.70
2017-12-03T19:36:05.135Z,91.30
2017-12-03T19:38:35.454Z,91.10
2017-12-03T19:41:02.935Z,91.40
2017-12-03T19:43:30.538Z,91.20
2017-12-03T19:45:58.064Z,91.50
2017-12-03T19:48:25.637Z,91.50
2017-12-03T19:50:53.148Z,91.60
2017-12-03T19:53:20.659Z,91.60
2017-12-03T19:55:48.162Z,91.80
2017-12-03T19:58:15.647Z,91.60
2017-12-03T20:00:43.922Z,91.50
2017-12-03T20:03:11.622Z,91.40
2017-12-03T20:05:39.441Z,91.30
2017-12-03T20:08:07.110Z,91.40
2017-12-03T20:10:35.363Z,91.60
2017-12-03T20:13:02.844Z,91.50
2017-12-03T20:15:30.473Z,91.50
2017-12-03T20:17:57.967Z,91.60
2017-12-03T20:20:25.518Z,91.80
2017-12-03T20:22:53.051Z,91.90
2017-12-03T20:25:20.615Z,92.00
2017-12-03T20:27:48.112Z,92.10
2017-12-03T20:30:15.732Z,92.20
2017-12-03T20:32:43.430Z,92.40
2017-12-03T20:35:11.030Z,92.50
2017-12-03T20:37:38.636Z,92.40
2017-12-03T20:40:06.961Z,92.40
2017-12-03T20:42:34.457Z,92.40
2017-12-03T20:45:01.985Z,92.50
2017-12-03T20:47:29.487Z,94.20
2017-12-03T20:49:56.999Z,92.80
2017-12-03T20:52:24.523Z,92.80
2017-12-03T20:54:52.054Z,92.90
2017-12-03T20:57:19.539Z,92.90
2017-12-03T20:59:47.076Z,93.00
2017-12-03T21:02:15.332Z,93.30
2017-12-03T21:04:42.891Z,93.30
2017-12-03T21:07:10.409Z,93.50
2017-12-03T21:09:37.891Z,93.60
2017-12-03T21:12:05.391Z,93.60
2017-12-03T21:14:33.670Z,93.50
2017-12-03T21:17:01.915Z,93.40
2017-12-03T21:19:30.089Z,93.40
2017-12-03T21:21:57.588Z,93.30
2017-12-03T21:24:25.092Z,93.30
2017-12-03T21:26:52.580Z,93.30
2017-12-03T21:29:20.881Z,93.30
2017-12-03T21:31:48.424Z,93.30
2017-12-03T21:34:16.685Z,93.40
2017-12-03T21:36:44.209Z,93.30
2017-12-03T21:39:11.733Z,93.30
2017-12-03T21:41:39.221Z,93.40
2017-12-03T21:44:06.714Z,93.50
2017-12-03T21:46:34.194Z,93.50
2017-12-03T21:49:02.501Z,93.60
2017-12-03T21:51:30.615Z,93.60
2017-12-03T21:53:58.104Z,93.60
2017-12-03T21:56:26.346Z,93.90
2017-12-03T21:58:53.936Z,93.90
2017-12-03T22:01:22.202Z,93.90
2017-12-03T22:03:49.691Z,93.90
2017-12-03T22:06:17.202Z,94.10
2017-12-03T22:08:44.693Z,94.10
2017-12-03T22:11:12.962Z,94.30
2017-12-03T22:13:41.219Z,94.30
2017-12-03T22:16:08.748Z,94.30
2017-12-03T22:18:36.261Z,94.40
2017-12-03T22:21:04.528Z,94.50
2017-12-03T22:23:32.784Z,94.50
2017-12-03T22:26:00.279Z,94.50
2017-12-03T22:28:27.782Z,94.60
2017-12-03T22:30:55.262Z,94.60
2017-12-03T22:33:22.753Z,94.60
2017-12-03T22:35:50.260Z,94.70
2017-12-03T22:38:17.751Z,94.70
2017-12-03T22:40:46.007Z,94.90
2017-12-03T22:43:13.522Z,94.90
2017-12-03T22:45:41.017Z,94.90
2017-12-03T22:48:08.496Z,95.00
2017-12-03T22:50:36.025Z,95.10
2017-12-03T22:53:03.505Z,95.10
2017-12-03T22:55:30.986Z,95.10
2017-12-03T22:57:59.260Z,95.20
2017-12-03T23:00:33.460Z,95.20
2017-12-03T23:03:00.956Z,95.30
2017-12-03T23:05:28.440Z,95.40
2017-12-03T23:07:55.926Z,95.50
2017-12-03T23:10:23.431Z,95.40
2017-12-03T23:12:50.916Z,95.50
2017-12-03T23:15:19.176Z,95.60
2017-12-03T23:17:46.683Z,95.60
2017-12-03T23:20:14.158Z,95.60
2017-12-03T23:22:42.410Z,96.50
2017-12-03T23:25:09.915Z,96.50
2017-12-03T23:27:37.434Z,96.80
2017-12-03T23:30:04.908Z,96.00
2017-12-03T23:32:32.428Z,95.70
2017-12-03T23:34:59.911Z,95.60
2017-12-03T23:37:28.165Z,95.80
2017-12-03T23:39:55.659Z,95.70
2017-12-03T23:42:23.959Z,95.80
2017-12-03T23:44:51.477Z,95.80
2017-12-03T23:47:18.984Z,95.80
2017-12-03T23:49:46.467Z,95.80
2017-12-03T23:52:13.959Z,95.80
2017-12-03T23:54:42.236Z,95.80
2017-12-03T23:57:10.487Z,95.70
2017-12-03T23:59:37.982Z,95.70
